createdAt,value
2018-12-16T00:00:35.827Z,22.70
2018-12-16T00:03:11.559Z,22.57
2018-12-16T00:05:47.833Z,21.23
2018-12-16T00:08:23.881Z,22.73
2018-12-16T00:11:00.075Z,20.20
2018-12-16T00:13:36.277Z,20.03
2018-12-16T00:16:17.098Z,22.43
2018-12-16T00:18:49.435Z,20.63
2018-12-16T00:21:21.896Z,21.07
2018-12-16T00:23:57.942Z,22.30
2018-12-16T00:27:38.204Z,20.50
2018-12-16T00:30:14.081Z,19.23
2018-12-16T00:32:50.009Z,18.53
2018-12-16T00:35:22.360Z,20.30
2018-12-16T00:37:58.537Z,20.30
2018-12-16T00:40:34.804Z,21.60
2018-12-16T00:43:10.720Z,19.20
2018-12-16T00:45:46.916Z,19.53
2018-12-16T00:48:23.153Z,21.60
2018-12-16T00:50:59.281Z,20.27
2018-12-16T00:53:35.320Z,21.50
2018-12-16T00:56:11.340Z,22.73
2018-12-16T00:58:47.450Z,21.53
2018-12-16T01:01:23.356Z,22.67
2018-12-16T01:03:59.408Z,21.77
2018-12-16T01:06:35.729Z,22.27
2018-12-16T01:09:11.760Z,18.07
2018-12-16T01:11:47.837Z,23.93
2018-12-16T01:14:23.833Z,23.13
2018-12-16T01:17:00.057Z,23.17
2018-12-16T01:19:35.945Z,25.07
2018-12-16T01:22:11.966Z,24.53
2018-12-16T01:24:48.115Z,24.10
2018-12-16T01:27:24.149Z,23.60
2018-12-16T01:30:00.232Z,25.80
2018-12-16T01:32:32.493Z,24.70
2018-12-16T01:35:08.797Z,25.17
2018-12-16T01:37:44.922Z,27.97
2018-12-16T01:40:21.149Z,25.90
2018-12-16T01:42:53.402Z,25.27
2018-12-16T01:45:29.549Z,23.97
2018-12-16T01:48:05.517Z,26.57
2018-12-16T01:50:41.749Z,27.43
2018-12-16T01:53:17.939Z,26.20
2018-12-16T01:55:54.209Z,26.27
2018-12-16T01:58:30.224Z,28.80
2018-12-16T02:01:06.428Z,25.70
2018-12-16T02:03:42.652Z,26.33
2018-12-16T02:06:18.950Z,26.53
2018-12-16T02:08:55.001Z,28.43
2018-12-16T02:11:30.977Z,27.60
2018-12-16T02:14:07.233Z,27.83
2018-12-16T02:16:39.561Z,27.63
2018-12-16T02:19:15.765Z,27.80
2018-12-16T02:21:51.907Z,27.57
2018-12-16T02:24:27.973Z,26.67
2018-12-16T02:27:04.292Z,26.90
2018-12-16T02:29:40.577Z,27.67
2018-12-16T02:32:16.466Z,25.57
2018-12-16T02:34:52.605Z,26.37
2018-12-16T02:37:28.642Z,26.53
2018-12-16T02:40:04.813Z,28.67
2018-12-16T02:42:40.890Z,27.37
2018-12-16T02:45:17.040Z,29.23
2018-12-16T02:47:53.309Z,26.73
2018-12-16T02:50:29.458Z,29.80
2018-12-16T02:53:05.752Z,27.27
2018-12-16T02:55:38.184Z,27.33
2018-12-16T02:58:10.489Z,27.50
2018-12-16T03:00:46.952Z,28.17
2018-12-16T03:03:22.821Z,28.80
2018-12-16T03:05:58.829Z,27.60
2018-12-16T03:08:34.938Z,28.33
2018-12-16T03:11:07.170Z,27.93
2018-12-16T03:13:43.402Z,27.27
2018-12-16T03:16:19.520Z,27.63
2018-12-16T03:18:55.816Z,28.03
2018-12-16T03:21:31.814Z,26.87
2018-12-16T03:24:07.982Z,27.90
2018-12-16T03:26:44.160Z,26.90
2018-12-16T03:29:20.302Z,25.30
2018-12-16T03:31:56.214Z,28.73
2018-12-16T03:34:32.355Z,27.63
2018-12-16T03:37:08.610Z,28.63
2018-12-16T03:39:44.838Z,25.63
2018-12-16T03:42:20.880Z,26.57
2018-12-16T03:50:04.151Z,25.27
2018-12-16T03:52:40.009Z,26.83
2018-12-16T03:55:15.811Z,26.20
2018-12-16T03:57:52.001Z,26.50
2018-12-16T04:00:28.087Z,25.57
2018-12-16T04:03:04.152Z,24.67
2018-12-16T04:05:40.042Z,24.50
2018-12-16T04:08:16.136Z,25.40
2018-12-16T04:10:52.121Z,25.33
2018-12-16T04:13:28.223Z,24.47
2018-12-16T04:16:04.248Z,25.00
2018-12-16T04:18:40.305Z,24.80
2018-12-16T04:21:12.573Z,24.53
2018-12-16T04:23:48.664Z,24.90
2018-12-16T04:26:24.877Z,24.57
2018-12-16T04:29:01.078Z,24.37
2018-12-16T04:31:37.108Z,25.23
2018-12-16T04:34:13.284Z,25.10
2018-12-16T04:36:49.492Z,25.03
2018-12-16T04:39:25.658Z,26.57
2018-12-16T04:42:01.496Z,25.87
2018-12-16T04:44:37.784Z,25.30
2018-12-16T04:47:13.954Z,26.13
2018-12-16T04:49:50.195Z,24.93
2018-12-16T05:15:28.201Z,23.87
2018-12-16T05:18:04.233Z,24.53
2018-12-16T05:20:40.215Z,24.47
2018-12-16T05:23:16.357Z,22.83
2018-12-16T05:25:52.386Z,25.13
2018-12-16T05:28:28.412Z,25.20
2018-12-16T05:31:00.748Z,25.83
2018-12-16T05:33:37.329Z,25.10
2018-12-16T05:36:12.956Z,24.13
2018-12-16T05:38:45.295Z,24.73
2018-12-16T05:41:21.220Z,25.27
2018-12-16T05:43:57.241Z,24.90
2018-12-16T05:46:29.500Z,24.50
2018-12-16T05:49:05.541Z,25.93
2018-12-16T05:51:41.637Z,24.23
2018-12-16T05:54:17.784Z,25.67
2018-12-16T05:56:53.800Z,23.90
2018-12-16T05:59:30.067Z,22.40
2018-12-16T06:02:02.442Z,23.90
2018-12-16T06:04:38.480Z,24.70
2018-12-16T06:07:14.372Z,24.77
2018-12-16T06:09:50.666Z,23.93
2018-12-16T06:12:26.881Z,23.00
2018-12-16T06:15:03.159Z,23.57
2018-12-16T06:17:39.112Z,23.77
2018-12-16T06:20:15.281Z,23.73
2018-12-16T06:22:51.417Z,23.70
2018-12-16T06:25:27.620Z,23.53
2018-12-16T06:28:03.868Z,24.87
2018-12-16T06:30:40.207Z,23.03
2018-12-16T06:33:16.304Z,25.33
2018-12-16T06:35:52.480Z,24.60
2018-12-16T06:38:28.571Z,23.80
2018-12-16T06:41:04.774Z,24.07
2018-12-16T06:43:40.904Z,25.87
2018-12-16T06:46:17.061Z,23.47
2018-12-16T06:48:53.096Z,23.30
2018-12-16T06:51:29.280Z,23.93
2018-12-16T06:54:02.649Z,24.43
2018-12-16T06:56:38.848Z,25.17
2018-12-16T06:59:14.980Z,24.50
2018-12-16T07:01:47.353Z,24.07
2018-12-16T07:04:23.709Z,23.53
2018-12-16T07:06:59.592Z,24.10
2018-12-16T07:09:35.607Z,24.43
2018-12-16T07:12:11.755Z,23.30
2018-12-16T07:14:47.704Z,24.77
2018-12-16T07:17:24.212Z,24.50
2018-12-16T07:20:00.304Z,24.53
2018-12-16T07:22:36.385Z,24.00
2018-12-16T07:25:12.561Z,24.47
2018-12-16T07:27:48.741Z,24.03
2018-12-16T07:30:24.820Z,24.57
2018-12-16T07:33:01.025Z,23.80
2018-12-16T07:35:37.066Z,24.43
2018-12-16T07:38:13.471Z,24.23
2018-12-16T07:40:49.493Z,24.63
2018-12-16T07:43:25.651Z,25.13
2018-12-16T07:46:01.680Z,25.30
2018-12-16T07:48:34.363Z,26.10
2018-12-16T07:51:10.076Z,25.60
2018-12-16T07:53:42.523Z,26.80
2018-12-16T07:56:18.719Z,27.00
2018-12-16T07:58:54.982Z,26.90
2018-12-16T08:01:31.149Z,25.67
2018-12-16T08:04:07.349Z,26.97
2018-12-16T08:06:43.593Z,27.50
2018-12-16T08:09:19.707Z,27.77
2018-12-16T08:11:55.887Z,27.53
2018-12-16T08:14:32.097Z,29.33
2018-12-16T08:17:08.171Z,24.47
2018-12-16T08:19:44.177Z,36.77
2018-12-16T08:27:22.404Z,24.70
2018-12-16T08:29:58.000Z,25.90
2018-12-16T08:32:34.117Z,24.23
2018-12-16T08:35:10.014Z,24.83
2018-12-16T08:37:49.345Z,25.23
2018-12-16T08:40:21.700Z,25.23
2018-12-16T08:42:57.779Z,25.00
2018-12-16T08:45:33.789Z,25.83
2018-12-16T08:48:09.833Z,25.70
2018-12-16T08:50:46.109Z,29.73
2018-12-16T08:53:22.035Z,23.73
2018-12-16T08:55:58.064Z,31.10
2018-12-16T08:58:34.129Z,25.70
2018-12-16T09:01:10.390Z,25.63
2018-12-16T09:03:47.076Z,29.17
2018-12-16T09:06:22.723Z,31.17
2018-12-16T09:08:59.244Z,28.97
2018-12-16T09:11:35.065Z,33.80
2018-12-16T09:14:11.216Z,28.00
2018-12-16T09:16:47.328Z,30.33
2018-12-16T09:19:23.176Z,28.27
2018-12-16T09:21:59.120Z,29.50
2018-12-16T09:24:37.469Z,30.53
2018-12-16T09:27:13.281Z,31.63
2018-12-16T09:29:49.430Z,32.47
2018-12-16T09:32:25.590Z,32.67
2018-12-16T09:34:57.852Z,33.07
2018-12-16T09:37:33.992Z,34.60
2018-12-16T09:40:10.092Z,30.90
2018-12-16T09:42:46.381Z,32.77
2018-12-16T09:45:22.624Z,31.20
2018-12-16T09:47:58.868Z,31.70
2018-12-16T09:50:31.306Z,29.07
2018-12-16T09:53:07.582Z,30.10
2018-12-16T09:55:43.850Z,29.73
2018-12-16T09:58:20.197Z,30.40
2018-12-16T10:00:56.132Z,30.77
2018-12-16T10:03:31.981Z,28.90
2018-12-16T10:06:08.424Z,29.13
2018-12-16T10:08:44.316Z,30.90
2018-12-16T10:11:20.320Z,27.87
2018-12-16T10:13:56.369Z,30.17
2018-12-16T10:16:32.759Z,27.23
2018-12-16T10:19:08.920Z,27.20
2018-12-16T10:21:45.117Z,27.90
2018-12-16T10:24:21.553Z,29.83
2018-12-16T10:26:57.340Z,31.57
2018-12-16T10:29:33.489Z,30.67
2018-12-16T10:32:05.900Z,29.43
2018-12-16T10:34:38.458Z,30.47
2018-12-16T10:44:51.050Z,29.30
2018-12-16T10:47:27.048Z,30.07
2018-12-16T11:18:10.600Z,36.40
2018-12-16T11:20:46.767Z,35.30
2018-12-16T11:23:22.846Z,32.63
2018-12-16T11:36:13.370Z,28.83
2018-12-16T11:38:49.401Z,28.27
2018-12-16T12:17:13.952Z,32.10
2018-12-16T12:19:49.974Z,31.60
2018-12-16T12:22:26.225Z,32.10
2018-12-16T12:25:02.264Z,32.50
2018-12-16T12:27:38.513Z,32.03
2018-12-16T12:30:14.694Z,30.03
2018-12-16T12:32:50.796Z,31.03
2018-12-16T12:35:26.979Z,29.53
2018-12-16T12:38:03.208Z,29.90
2018-12-16T12:40:39.433Z,29.60
2018-12-16T12:43:15.642Z,31.07
2018-12-16T12:45:51.610Z,31.77
2018-12-16T12:48:27.861Z,30.23
2018-12-16T12:51:04.082Z,30.80
2018-12-16T12:53:40.239Z,29.63
2018-12-16T12:56:16.536Z,29.27
2018-12-16T12:58:52.442Z,32.53
2018-12-16T13:01:28.658Z,30.13
2018-12-16T13:04:04.889Z,23.60
2018-12-16T13:06:37.480Z,27.17
2018-12-16T13:09:13.328Z,40.93
2018-12-16T13:11:45.603Z,32.37
2018-12-16T13:14:22.260Z,33.17
2018-12-16T13:17:01.398Z,34.27
2018-12-16T13:24:57.856Z,30.53
2018-12-16T13:27:35.185Z,26.07
2018-12-16T13:30:14.164Z,24.73
2018-12-16T13:32:50.193Z,22.37
2018-12-16T13:35:26.467Z,21.37
2018-12-16T13:38:03.221Z,21.57
2018-12-16T13:40:40.005Z,20.00
2018-12-16T13:43:12.448Z,19.83
2018-12-16T13:45:49.338Z,19.00
2018-12-16T13:48:26.476Z,15.80
2018-12-16T13:51:00.345Z,14.00
2018-12-16T13:53:40.026Z,13.90
2018-12-16T13:56:16.386Z,14.63
2018-12-16T13:58:52.377Z,15.17
2018-12-16T14:01:29.224Z,13.10
2018-12-16T14:04:02.457Z,14.33
2018-12-16T14:06:35.207Z,13.27
2018-12-16T14:09:11.270Z,13.77
2018-12-16T14:11:47.568Z,14.53
2018-12-16T14:14:24.273Z,14.40
2018-12-16T14:17:01.610Z,13.13
2018-12-16T14:19:38.067Z,13.63
2018-12-16T14:22:14.407Z,13.17
2018-12-16T14:24:51.849Z,13.43
2018-12-16T14:37:41.307Z,10.47
2018-12-16T14:40:21.393Z,11.77
2018-12-16T14:42:58.425Z,13.70
2018-12-16T14:45:35.749Z,10.60
2018-12-16T14:48:11.769Z,12.60
2018-12-16T14:50:49.000Z,12.00
2018-12-16T14:53:26.175Z,13.23
2018-12-16T14:56:03.596Z,13.00
2018-12-16T14:58:40.353Z,13.33
2018-12-16T15:01:16.504Z,13.93
2018-12-16T15:03:52.466Z,12.70
2018-12-16T15:06:30.160Z,13.17
2018-12-16T15:09:09.010Z,12.63
2018-12-16T15:11:45.497Z,13.70
2018-12-16T15:14:21.185Z,13.63
2018-12-16T15:16:53.785Z,13.80
2018-12-16T15:19:30.418Z,14.17
2018-12-16T15:22:03.929Z,12.93
2018-12-16T15:24:40.880Z,12.83
2018-12-16T15:27:13.416Z,12.10
2018-12-16T15:29:49.797Z,12.50
2018-12-16T15:32:27.038Z,13.93
2018-12-16T15:35:04.194Z,14.07
2018-12-16T15:37:41.300Z,13.00
2018-12-16T15:40:18.509Z,14.37
2018-12-16T15:42:55.832Z,15.10
2018-12-16T15:48:01.757Z,15.20
2018-12-16T15:50:38.174Z,14.33
2018-12-16T15:53:14.228Z,15.23
2018-12-16T15:55:50.196Z,17.10
2018-12-16T15:58:26.450Z,14.90
2018-12-16T16:23:57.240Z,17.63
2018-12-16T16:26:33.540Z,14.67
2018-12-16T16:29:09.618Z,17.07
2018-12-16T16:31:46.010Z,19.53
2018-12-16T16:34:21.923Z,16.50
2018-12-16T16:36:57.995Z,14.47
2018-12-16T16:39:34.243Z,17.53
2018-12-16T16:42:10.625Z,15.17
2018-12-16T16:44:46.749Z,15.80
2018-12-16T16:47:22.776Z,15.00
2018-12-16T16:49:58.845Z,17.03
2018-12-16T16:52:35.179Z,15.50
2018-12-16T16:55:11.243Z,18.87
2018-12-16T16:57:47.922Z,22.47
2018-12-16T17:00:24.253Z,26.20
2018-12-16T17:03:00.340Z,26.00
2018-12-16T17:05:36.348Z,24.90
2018-12-16T17:08:08.733Z,27.17
2018-12-16T17:10:44.988Z,25.90
2018-12-16T17:13:21.251Z,20.97
2018-12-16T17:15:57.337Z,20.33
2018-12-16T17:18:34.388Z,19.90
2018-12-16T17:21:10.680Z,20.70
2018-12-16T17:23:46.982Z,20.43
2018-12-16T17:26:29.796Z,20.73
2018-12-16T17:29:01.550Z,24.63
2018-12-16T17:31:38.474Z,27.00
2018-12-16T17:34:11.273Z,27.13
2018-12-16T17:36:47.212Z,31.50
2018-12-16T17:39:23.381Z,32.27
2018-12-16T17:41:59.465Z,37.80
2018-12-16T17:44:35.802Z,33.43
2018-12-16T17:47:11.848Z,28.87
2018-12-16T17:49:47.862Z,28.33
2018-12-16T17:52:24.042Z,26.40
2018-12-16T17:55:00.196Z,26.87
2018-12-16T17:57:36.184Z,26.60
2018-12-16T18:00:12.713Z,27.87
2018-12-16T18:02:48.489Z,29.97
2018-12-16T18:05:24.856Z,28.80
2018-12-16T18:08:00.973Z,28.40
2018-12-16T18:10:37.112Z,31.73
2018-12-16T18:13:13.389Z,28.70
2018-12-16T18:15:49.560Z,27.80
2018-12-16T18:18:25.796Z,27.27
2018-12-16T18:21:01.982Z,26.13
2018-12-16T18:23:38.136Z,25.67
2018-12-16T18:26:10.554Z,22.13
2018-12-16T18:28:46.685Z,21.03
2018-12-16T18:31:23.911Z,23.17
2018-12-16T18:34:00.050Z,21.90
2018-12-16T18:36:36.260Z,22.40
2018-12-16T18:39:12.720Z,21.90
2018-12-16T18:41:48.817Z,22.57
2018-12-16T18:44:24.706Z,23.07
2018-12-16T18:47:00.798Z,24.20
2018-12-16T18:49:37.065Z,25.60
2018-12-16T18:52:13.381Z,26.63
2018-12-16T18:54:49.353Z,26.33
2018-12-16T18:57:25.611Z,27.73
2018-12-16T19:00:01.658Z,28.60
2018-12-16T19:02:37.647Z,29.83
2018-12-16T19:05:13.734Z,28.17
2018-12-16T19:07:49.999Z,30.93
2018-12-16T19:10:25.952Z,46.73
2018-12-16T19:13:02.637Z,41.00
2018-12-16T19:15:42.537Z,33.70
2018-12-16T19:18:19.430Z,35.73
2018-12-16T19:20:59.429Z,38.07
2018-12-16T19:23:35.849Z,40.77
2018-12-16T19:26:25.179Z,33.00
2018-12-16T19:28:57.951Z,34.30
2018-12-16T19:31:35.863Z,38.20
2018-12-16T19:34:12.955Z,39.93
2018-12-16T19:36:52.253Z,40.77
2018-12-16T19:39:24.849Z,38.83
2018-12-16T19:42:04.505Z,39.07
2018-12-16T19:44:41.892Z,40.40
2018-12-16T19:47:21.585Z,49.93
2018-12-16T19:49:58.390Z,46.47
2018-12-16T19:52:31.042Z,44.73
2018-12-16T19:55:08.193Z,41.93
2018-12-16T19:57:45.042Z,40.43
2018-12-16T20:00:22.375Z,43.07
2018-12-16T20:02:58.473Z,48.00
2018-12-16T20:05:40.088Z,48.53
2018-12-16T20:08:16.635Z,40.00
2018-12-16T20:10:56.779Z,39.20
2018-12-16T20:13:29.761Z,39.03
2018-12-16T20:16:06.509Z,36.77
2018-12-16T20:18:42.709Z,32.40
2018-12-16T20:21:19.401Z,30.90
2018-12-16T20:23:56.513Z,35.00
2018-12-16T20:26:32.667Z,37.37
2018-12-16T20:29:08.825Z,37.10
2018-12-16T20:31:44.936Z,37.67
2018-12-16T20:34:21.196Z,36.23
2018-12-16T20:36:57.509Z,37.33
2018-12-16T20:39:33.892Z,35.93
2018-12-16T20:42:14.424Z,36.30
2018-12-16T20:44:50.618Z,36.80
2018-12-16T20:47:27.105Z,37.20
2018-12-16T20:50:05.238Z,36.30
2018-12-16T20:52:44.875Z,38.17
2018-12-16T20:55:21.315Z,52.10
2018-12-16T20:58:01.634Z,44.27
2018-12-16T21:00:37.950Z,48.93
2018-12-16T21:03:27.478Z,44.93
2018-12-16T21:06:03.962Z,75.10
2018-12-16T21:08:43.054Z,45.70
2018-12-16T21:12:23.117Z,42.47
2018-12-16T21:17:11.744Z,87.43
2018-12-16T21:19:50.881Z,53.90
2018-12-16T21:22:30.252Z,41.03
2018-12-16T21:25:06.464Z,46.63
2018-12-16T21:27:48.444Z,37.23
2018-12-16T21:30:24.932Z,40.20
2018-12-16T21:33:04.840Z,40.23
2018-12-16T21:35:38.185Z,43.60
2018-12-16T21:51:18.255Z,45.67
2018-12-16T22:01:42.407Z,62.70
2018-12-16T22:04:14.649Z,70.43
2018-12-16T22:06:53.653Z,51.43
2018-12-16T22:09:29.918Z,48.30
2018-12-16T22:12:10.258Z,35.13
2018-12-16T22:14:44.113Z,34.13
2018-12-16T22:17:23.297Z,37.23
2018-12-16T22:19:59.189Z,33.43
2018-12-16T22:22:38.434Z,33.47
2018-12-16T22:25:16.058Z,32.43
2018-12-16T22:27:52.932Z,28.80
2018-12-16T22:30:25.872Z,31.50
2018-12-16T22:33:02.864Z,33.30
2018-12-16T22:35:38.965Z,39.27
2018-12-16T22:38:15.175Z,29.57
2018-12-16T22:40:51.985Z,28.63
2018-12-16T22:43:28.242Z,28.87
2018-12-16T22:46:04.690Z,27.80
2018-12-16T22:48:43.740Z,25.07
2018-12-16T22:51:20.214Z,26.30
2018-12-16T22:53:59.995Z,29.20
2018-12-16T22:56:33.210Z,32.90
2018-12-16T22:59:14.450Z,39.10
2018-12-16T23:01:48.424Z,29.80
2018-12-16T23:04:27.893Z,28.20
2018-12-16T23:07:00.381Z,25.17
2018-12-16T23:09:37.036Z,25.57
2018-12-16T23:12:13.077Z,25.03
2018-12-16T23:14:48.896Z,25.23
2018-12-16T23:17:25.145Z,25.17
2018-12-16T23:20:02.757Z,26.33
2018-12-16T23:22:38.410Z,25.30
2018-12-16T23:25:14.924Z,27.33
2018-12-16T23:27:54.269Z,26.70
2018-12-16T23:30:26.144Z,30.17
2018-12-16T23:33:02.466Z,32.40
2018-12-16T23:35:41.653Z,31.13
2018-12-16T23:38:17.991Z,27.57
2018-12-16T23:41:07.550Z,26.33
2018-12-16T23:43:40.125Z,26.07
2018-12-16T23:46:16.286Z,25.70
2018-12-16T23:48:53.521Z,27.50
2018-12-16T23:51:32.626Z,26.17
2018-12-16T23:54:09.133Z,26.67
2018-12-16T23:56:46.288Z,25.27
2018-12-16T23:59:23.955Z,24.53
